Time;durP1;ratioP1;P1;durP2;ratioP2;P2;SDS_P1;SDS_P2;PMS_P1;PMS_P2;Temp;Humidity;BMP_temperature;BMP_pressure;BME280_temperature;BME280_humidity;BME280_pressure;Samples;Min_cycle;Max_cycle;Signal;HPM_P1;HPM_P2
2023/03/22 00:02:24;;;;;;;49.35;28.63;;;;;;;7.92;100.00;100325.59;5014706;28;20034;-78
2023/03/22 00:04:51;;;;;;;49.08;30.15;;;;;;;7.91;100.00;100321.25;5014956;28;20041;-77
2023/03/22 00:07:16;;;;;;;46.83;29.13;;;;;;;7.86;100.00;100322.72;5017275;28;20435;-77
2023/03/22 00:09:42;;;;;;;55.08;28.58;;;;;;;7.82;100.00;100314.25;5016970;28;20029;-78
2023/03/22 00:12:07;;;;;;;50.95;28.80;;;;;;;7.80;100.00;100314.38;5028030;28;20475;-78
2023/03/22 00:14:32;;;;;;;55.73;29.27;;;;;;;7.71;100.00;100295.88;5017405;28;20076;-77
2023/03/22 00:16:58;;;;;;;47.07;28.70;;;;;;;7.74;100.00;100303.53;5014943;28;20361;-77
2023/03/22 00:19:23;;;;;;;52.63;27.67;;;;;;;7.67;100.00;100287.38;5007351;28;20037;-77
2023/03/22 00:21:50;;;;;;;53.43;29.77;;;;;;;7.55;100.00;100292.09;5015662;28;20036;-77
2023/03/22 00:24:15;;;;;;;48.35;28.65;;;;;;;7.66;100.00;100303.50;4989825;28;20068;-77
2023/03/22 00:26:41;;;;;;;51.53;26.93;;;;;;;7.65;100.00;100301.81;5003968;28;20065;-79
2023/03/22 00:29:06;;;;;;;59.30;31.43;;;;;;;7.59;100.00;100300.63;5013711;28;20030;-77
2023/03/22 00:31:32;;;;;;;50.90;29.35;;;;;;;7.57;100.00;100292.78;5017418;28;20021;-77
2023/03/22 00:33:58;;;;;;;48.43;28.70;;;;;;;7.44;100.00;100284.38;5014517;28;20041;-77
2023/03/22 00:36:23;;;;;;;48.80;27.67;;;;;;;7.50;100.00;100283.75;4990925;28;20029;-77
2023/03/22 00:38:50;;;;;;;54.55;30.05;;;;;;;7.45;100.00;100287.88;5009346;28;20030;-77
2023/03/22 00:41:21;;;;;;;46.95;26.38;;;;;;;7.45;100.00;100288.72;5005634;28;20041;-78
2023/03/22 00:43:47;;;;;;;48.83;28.73;;;;;;;7.41;100.00;100287.34;5015922;28;20529;-77
2023/03/22 00:46:14;;;;;;;47.45;27.40;;;;;;;7.38;100.00;100275.22;4988638;28;20018;-78
2023/03/22 00:48:39;;;;;;;53.67;28.52;;;;;;;7.34;100.00;100265.03;5000014;28;20387;-77
2023/03/22 00:51:05;;;;;;;47.73;28.30;;;;;;;7.31;100.00;100260.88;5019794;28;20030;-78
2023/03/22 00:53:32;;;;;;;45.00;26.90;;;;;;;7.29;100.00;100254.88;5000755;28;20033;-77
2023/03/22 00:55:58;;;;;;;52.47;28.50;;;;;;;7.26;100.00;100249.88;5014535;28;20597;-77
2023/03/22 00:58:25;;;;;;;51.30;25.65;;;;;;;7.37;100.00;100264.72;5006917;28;20056;-78
2023/03/22 01:00:51;;;;;;;46.40;27.45;;;;;;;7.38;100.00;100258.44;5015241;28;20099;-77
2023/03/22 01:03:16;;;;;;;51.50;26.13;;;;;;;7.36;100.00;100252.44;5005700;28;20103;-79
2023/03/22 01:05:45;;;;;;;51.28;25.65;;;;;;;7.36;100.00;100255.09;5016151;28;20025;-79
2023/03/22 01:08:11;;;;;;;42.78;25.13;;;;;;;7.23;100.00;100228.09;4991169;28;20397;-79
2023/03/22 01:10:38;;;;;;;46.67;26.05;;;;;;;7.34;100.00;100238.47;5019813;28;20044;-78
2023/03/22 01:13:05;;;;;;;40.65;26.27;;;;;;;7.23;100.00;100230.75;5002659;28;20037;-78
2023/03/22 01:15:31;;;;;;;45.50;27.95;;;;;;;7.17;100.00;100233.03;4999345;28;20025;-77
2023/03/22 01:17:57;;;;;;;;;;;;;;;7.09;100.00;100229.47;5003930;28;20087;-78
2023/03/22 01:20:22;;;;;;;54.38;27.00;;;;;;;7.09;100.00;100230.28;5015558;28;19913;-78
2023/03/22 01:22:47;;;;;;;50.30;28.13;;;;;;;7.06;100.00;100225.31;4999553;28;20033;-78
2023/03/22 01:25:13;;;;;;;47.40;26.33;;;;;;;7.04;100.00;100226.44;4989023;28;20714;-77
2023/03/22 01:27:39;;;;;;;51.10;26.83;;;;;;;7.04;100.00;100224.63;5017837;28;20087;-77
2023/03/22 01:30:05;;;;;;;48.67;26.40;;;;;;;7.02;100.00;100215.16;5019323;28;20415;-79
2023/03/22 01:32:30;;;;;;;;;;;;;;;6.99;100.00;100224.25;5008934;28;21056;-79
2023/03/22 01:34:56;;;;;;;47.55;25.38;;;;;;;6.96;100.00;100219.25;4997624;28;19928;-80
2023/03/22 01:37:24;;;;;;;55.03;28.70;;;;;;;6.96;100.00;100213.94;4992807;28;20038;-77
2023/03/22 01:39:50;;;;;;;47.97;27.50;;;;;;;6.97;100.00;100207.63;5014495;28;20044;-77
2023/03/22 01:42:17;;;;;;;47.78;25.92;;;;;;;6.85;100.00;100201.72;5004049;28;20286;-78
2023/03/22 01:44:43;;;;;;;;;;;;;;;6.88;100.00;100205.88;5015970;28;20029;-78
2023/03/22 01:47:10;;;;;;;48.42;27.70;;;;;;;6.92;100.00;100208.09;5003172;28;19964;-78
2023/03/22 01:49:37;;;;;;;48.40;27.48;;;;;;;6.89;100.00;100203.09;5003029;28;20385;-78
2023/03/22 01:52:09;;;;;;;44.00;25.92;;;;;;;6.99;100.00;100208.31;5022379;28;20467;-78
2023/03/22 01:54:52;;;;;;;44.80;25.80;;;;;;;6.96;100.00;100200.69;5005661;28;20521;-77
2023/03/22 01:57:37;;;;;;;46.53;27.00;;;;;;;6.92;100.00;100202.78;5016923;28;20099;-79
2023/03/22 02:00:09;;;;;;;46.15;25.75;;;;;;;6.94;100.00;100202.63;5016389;28;20117;-77
2023/03/22 02:03:00;;;;;;;55.90;28.15;;;;;;;6.91;100.00;100189.69;5017313;28;20129;-78
2023/03/22 02:05:35;;;;;;;49.13;27.58;;;;;;;6.98;100.00;100196.88;5007160;28;20060;-77
2023/03/22 02:08:01;;;;;;;50.63;27.40;;;;;;;6.93;100.00;100183.25;5004364;28;20038;-77
2023/03/22 02:10:31;;;;;;;43.95;27.70;;;;;;;7.03;100.00;100188.47;5007836;28;20041;-78
2023/03/22 02:13:23;;;;;;;47.10;25.83;;;;;;;7.00;100.00;100193.22;5006664;28;20037;-77
2023/03/22 02:16:16;;;;;;;47.47;25.80;;;;;;;6.97;100.00;100189.06;4994476;28;20061;-78
2023/03/22 02:19:14;;;;;;;45.42;24.58;;;;;;;7.02;100.00;100180.63;5012978;28;20373;-78
2023/03/22 02:22:05;;;;;;;44.15;25.10;;;;;;;7.00;100.00;100194.09;4988132;28;20434;-78
2023/03/22 02:24:55;;;;;;;46.92;25.63;;;;;;;6.99;100.00;100189.75;4989665;28;20145;-78
2023/03/22 02:27:37;;;;;;;48.38;24.58;;;;;;;6.96;100.00;100187.41;5009484;28;20593;-78
2023/03/22 02:30:25;;;;;;;45.00;25.10;;;;;;;6.96;100.00;100185.56;5015865;28;20479;-77
2023/03/22 02:33:21;;;;;;;40.63;24.52;;;;;;;6.97;100.00;100181.09;5011561;28;20056;-77
2023/03/22 02:36:02;;;;;;;48.03;25.15;;;;;;;6.85;100.00;100174.38;4992027;28;20099;-77
2023/03/22 02:38:51;;;;;;;47.50;26.27;;;;;;;6.79;100.00;100169.66;4992996;28;20030;-77
2023/03/22 02:41:25;;;;;;;41.53;25.00;;;;;;;6.74;100.00;100162.16;4991332;28;20029;-78
2023/03/22 02:44:29;;;;;;;47.13;26.27;;;;;;;6.68;100.00;100174.22;5018229;28;20064;-78
2023/03/22 02:47:21;;;;;;;48.38;26.67;;;;;;;6.65;100.00;100169.22;5004742;28;20494;-77
2023/03/22 02:50:01;;;;;;;49.10;26.30;;;;;;;6.75;100.00;100169.13;5013755;28;20037;-78
2023/03/22 02:52:47;;;;;;;46.65;27.27;;;;;;;6.78;100.00;100175.97;5018209;28;20041;-78
2023/03/22 02:55:39;;;;;;;48.33;28.30;;;;;;;6.88;100.00;100185.53;5016727;28;20519;-77
2023/03/22 02:58:20;;;;;;;53.00;26.65;;;;;;;6.96;100.00;100182.09;4998607;28;20355;-77
2023/03/22 03:00:49;;;;;;;47.00;25.52;;;;;;;6.95;100.00;100185.72;5021079;28;20092;-77
2023/03/22 03:03:17;;;;;;;52.45;28.85;;;;;;;6.92;100.00;100178.06;4991133;28;20032;-77
2023/03/22 03:05:53;;;;;;;50.13;27.42;;;;;;;6.91;100.00;100179.91;5018256;28;20056;-78
2023/03/22 03:08:19;;;;;;;46.67;27.13;;;;;;;6.96;100.00;100176.78;4990439;28;20467;-77
2023/03/22 03:10:47;;;;;;;53.08;29.20;;;;;;;6.98;100.00;100185.44;5014153;28;20076;-78
2023/03/22 03:13:14;;;;;;;49.33;27.55;;;;;;;7.02;100.00;100176.16;5015719;28;20042;-78
2023/03/22 03:15:42;;;;;;;54.50;28.08;;;;;;;7.06;100.00;100169.56;4995058;28;20046;-77
2023/03/22 03:18:31;;;;;;;49.38;25.45;;;;;;;7.11;100.00;100169.09;5011983;28;20021;-77
2023/03/22 03:21:16;;;;;;;47.33;27.75;;;;;;;7.15;100.00;100171.28;5014285;28;20044;-78
2023/03/22 03:24:10;;;;;;;53.03;28.60;;;;;;;7.16;100.00;100167.66;5002815;28;20080;-77
2023/03/22 03:26:48;;;;;;;61.83;29.05;;;;;;;7.13;100.00;100167.97;5011445;28;20730;-78
2023/03/22 03:29:27;;;;;;;50.35;28.30;;;;;;;7.14;100.00;100164.34;5011681;28;20046;-77
2023/03/22 03:32:06;;;;;;;51.75;29.98;;;;;;;7.15;100.00;100163.31;5016652;28;20099;-77
2023/03/22 03:34:44;;;;;;;52.03;30.00;;;;;;;7.16;100.00;100157.03;5010593;28;20029;-78
2023/03/22 03:37:17;;;;;;;56.28;28.85;;;;;;;7.10;100.00;100149.69;5011580;28;20057;-77
2023/03/22 03:39:50;;;;;;;53.65;28.63;;;;;;;7.15;100.00;100159.84;5001488;28;20048;-77
2023/03/22 03:42:17;;;;;;;49.55;28.35;;;;;;;7.13;100.00;100160.00;5016630;28;20044;-79
2023/03/22 03:44:44;;;;;;;47.10;29.40;;;;;;;7.16;100.00;100162.34;5017637;28;20075;-78
2023/03/22 03:47:09;;;;;;;;;;;;;;;7.22;100.00;100160.06;5015961;28;20029;-77
2023/03/22 03:49:35;;;;;;;57.35;28.85;;;;;;;7.25;100.00;100149.13;5001689;28;19920;-77
2023/03/22 03:52:02;;;;;;;56.15;27.73;;;;;;;7.30;100.00;100150.31;5016275;28;20133;-77
2023/03/22 03:54:27;;;;;;;45.92;28.98;;;;;;;7.28;100.00;100135.53;5008645;28;20096;-77
2023/03/22 03:56:53;;;;;;;44.40;28.98;;;;;;;7.35;100.00;100150.72;5016161;28;20049;-78
2023/03/22 03:59:19;;;;;;;48.45;29.17;;;;;;;7.45;100.00;100155.91;5016966;28;20030;-77
2023/03/22 04:01:51;;;;;;;51.58;28.75;;;;;;;7.50;100.00;100150.94;5016583;28;20029;-78
2023/03/22 04:04:25;;;;;;;48.10;26.83;;;;;;;7.52;100.00;100140.19;4994323;28;20125;-77
2023/03/22 04:06:57;;;;;;;52.95;28.77;;;;;;;7.58;100.00;100131.56;5021205;28;20048;-77
2023/03/22 04:09:31;;;;;;;41.90;26.90;;;;;;;7.58;100.00;100132.38;5016417;28;20880;-77
2023/03/22 04:12:04;;;;;;;46.00;27.17;;;;;;;7.64;100.00;100138.09;4999193;28;20044;-77
2023/03/22 04:14:29;;;;;;;46.13;27.52;;;;;;;7.66;100.00;100134.28;5004578;28;20037;-77
2023/03/22 04:16:58;;;;;;;44.60;25.58;;;;;;;7.72;100.00;100130.13;5004011;28;20029;-78
2023/03/22 04:19:24;;;;;;;41.95;24.75;;;;;;;7.80;100.00;100122.22;5007438;28;20059;-76
2023/03/22 04:21:51;;;;;;;43.08;25.92;;;;;;;7.81;100.00;100121.22;5036280;23;22764;-74
2023/03/22 04:24:17;;;;;;;41.67;25.30;;;;;;;7.86;100.00;100121.56;5006716;28;20116;-74
2023/03/22 04:26:44;;;;;;;41.15;24.27;;;;;;;7.91;100.00;100108.63;5000429;28;20502;-73
2023/03/22 04:29:23;;;;;;;39.33;25.85;;;;;;;7.93;100.00;100100.50;5021941;28;20113;-74
2023/03/22 04:31:53;;;;;;;45.00;24.55;;;;;;;7.97;100.00;100096.53;5014944;28;20036;-73
2023/03/22 04:34:25;;;;;;;45.72;23.45;;;;;;;8.03;100.00;100102.03;5033702;28;20140;-73
2023/03/22 04:36:54;;;;;;;40.42;25.00;;;;;;;8.01;100.00;100093.38;5014898;28;20442;-74
2023/03/22 04:39:29;;;;;;;42.50;23.80;;;;;;;7.98;100.00;100087.53;5016826;28;20024;-74
2023/03/22 04:42:05;;;;;;;40.97;25.10;;;;;;;8.03;100.00;100078.09;5013760;28;20025;-74
2023/03/22 04:44:32;;;;;;;40.85;24.63;;;;;;;8.04;100.00;100087.72;5000117;28;20034;-74
2023/03/22 04:46:57;;;;;;;39.72;23.80;;;;;;;8.02;100.00;100081.75;5004113;28;20038;-74
2023/03/22 04:49:23;;;;;;;45.13;24.40;;;;;;;8.02;100.00;100079.09;5017065;28;20033;-74
2023/03/22 04:51:49;;;;;;;43.40;23.10;;;;;;;8.00;100.00;100069.63;5015777;28;20032;-75
2023/03/22 04:54:27;;;;;;;43.88;21.95;;;;;;;8.01;100.00;100066.81;5033560;28;20461;-74
2023/03/22 04:56:52;;;;;;;39.30;21.80;;;;;;;8.05;100.00;100075.25;4998923;28;20069;-74
2023/03/22 04:59:20;;;;;;;33.70;22.08;;;;;;;8.06;100.00;100070.81;5017214;28;20072;-73
2023/03/22 05:01:49;;;;;;;33.92;21.85;;;;;;;8.02;100.00;100068.44;5015657;28;20069;-73
2023/03/22 05:04:18;;;;;;;39.75;23.67;;;;;;;8.04;100.00;100069.13;5018985;28;20060;-73
2023/03/22 05:06:45;;;;;;;;;;;;;;;8.06;100.00;100068.16;5017384;28;20033;-73
2023/03/22 05:09:25;;;;;;;36.00;21.60;;;;;;;8.00;100.00;100070.44;5009228;28;19928;-74
2023/03/22 05:11:52;;;;;;;37.60;20.98;;;;;;;7.98;100.00;100067.13;5007123;28;20041;-74
2023/03/22 05:14:46;;;;;;;34.83;22.13;;;;;;;7.97;100.00;100060.13;5007592;28;20076;-74
2023/03/22 05:17:15;;;;;;;37.55;22.13;;;;;;;8.02;100.00;100073.78;5015447;28;20283;-74
2023/03/22 05:19:40;;;;;;;31.48;22.50;;;;;;;7.94;100.00;100067.63;5016345;28;20144;-72
2023/03/22 05:22:06;;;;;;;42.20;23.57;;;;;;;7.96;100.00;100066.47;5006476;28;20041;-72
2023/03/22 05:24:41;;;;;;;39.60;22.70;;;;;;;7.98;100.00;100072.44;5007598;28;20037;-74
2023/03/22 05:27:13;;;;;;;35.17;21.38;;;;;;;8.04;100.00;100077.09;5003779;28;20033;-72
2023/03/22 05:29:43;;;;;;;35.78;22.95;;;;;;;8.02;100.00;100073.78;5016398;28;20051;-72
2023/03/22 05:32:13;;;;;;;36.43;21.40;;;;;;;8.01;100.00;100064.13;5012227;28;20023;-74
2023/03/22 05:34:40;;;;;;;34.30;21.20;;;;;;;8.04;100.00;100061.16;5016746;28;20479;-74
2023/03/22 05:37:19;;;;;;;32.75;19.83;;;;;;;8.10;100.00;100064.16;5009702;28;20010;-73
2023/03/22 05:39:53;;;;;;;36.15;21.52;;;;;;;8.02;100.00;100052.50;5015311;28;20059;-74
2023/03/22 05:42:22;;;;;;;35.63;21.08;;;;;;;8.03;100.00;100054.19;5015099;28;20030;-74
2023/03/22 05:44:47;;;;;;;35.60;20.47;;;;;;;8.14;100.00;100060.19;5015292;28;20032;-74
2023/03/22 05:47:13;;;;;;;36.95;20.95;;;;;;;8.13;100.00;100058.53;5030417;28;20088;-73
2023/03/22 05:49:49;;;;;;;35.90;20.75;;;;;;;8.12;100.00;100055.00;4999745;28;20037;-74
2023/03/22 05:52:15;;;;;;;31.67;19.65;;;;;;;8.13;100.00;100064.66;5018502;28;20041;-73
2023/03/22 05:54:59;;;;;;;35.72;20.42;;;;;;;8.09;100.00;100057.19;5014112;28;20045;-73
2023/03/22 05:57:25;;;;;;;27.55;18.58;;;;;;;8.08;100.00;100056.34;5012447;28;20017;-74
2023/03/22 05:59:52;;;;;;;;;;;;;;;8.07;100.00;100052.00;5020415;28;20045;-72
2023/03/22 06:02:23;;;;;;;31.70;18.67;;;;;;;8.07;100.00;100051.19;5003560;28;19913;-74
2023/03/22 06:04:49;;;;;;;;;;;;;;;8.13;100.00;100053.19;5020078;28;20068;-74
2023/03/22 06:07:15;;;;;;;33.00;19.30;;;;;;;8.07;100.00;100049.34;5004435;28;20556;-74
2023/03/22 06:09:48;;;;;;;37.30;19.92;;;;;;;8.14;100.00;100049.53;5014881;28;20033;-74
2023/03/22 06:12:21;;;;;;;34.95;17.83;;;;;;;8.16;100.00;100047.56;5013660;28;20040;-73
2023/03/22 06:14:50;;;;;;;32.30;18.75;;;;;;;8.19;100.00;100042.75;5014422;28;20040;-73
2023/03/22 06:17:23;;;;;;;27.02;18.40;;;;;;;8.22;100.00;100026.47;5015343;28;20026;-74
2023/03/22 06:19:49;;;;;;;31.08;17.33;;;;;;;8.27;100.00;100033.94;5014478;28;20563;-74
2023/03/22 06:22:15;;;;;;;;;;;;;;;8.23;100.00;100021.97;5014526;28;20048;-74
2023/03/22 06:24:41;;;;;;;33.17;17.65;;;;;;;8.28;100.00;100016.97;5015992;28;19920;-74
2023/03/22 06:27:09;;;;;;;27.85;15.25;;;;;;;8.36;100.00;100008.19;5006313;28;20057;-74
2023/03/22 06:29:38;;;;;;;27.42;15.23;;;;;;;8.40;100.00;100007.69;5018490;28;20450;-74
2023/03/22 06:32:05;;;;;;;24.67;14.75;;;;;;;8.50;100.00;100012.88;4998985;28;20699;-75
2023/03/22 06:34:31;;;;;;;;;;;;;;;8.60;100.00;100002.06;5016449;28;20473;-74
2023/03/22 06:36:57;;;;;;;26.05;13.60;;;;;;;8.51;100.00;99992.41;5014213;28;19974;-74
2023/03/22 06:39:29;;;;;;;30.02;15.65;;;;;;;8.60;100.00;99988.75;5006791;28;20033;-74
2023/03/22 06:41:55;;;;;;;29.67;15.57;;;;;;;8.56;100.00;99974.13;5022341;28;20038;-73
2023/03/22 06:44:21;;;;;;;27.58;13.98;;;;;;;8.57;100.00;99973.97;5018257;28;20040;-73
2023/03/22 06:47:03;;;;;;;22.58;13.93;;;;;;;8.57;100.00;99973.09;5007684;28;20030;-74
2023/03/22 06:49:42;;;;;;;26.30;14.93;;;;;;;8.60;100.00;99972.78;5016711;28;20029;-74
2023/03/22 06:52:12;;;;;;;22.70;14.13;;;;;;;8.69;100.00;99963.78;5003929;28;20071;-72
2023/03/22 06:54:38;;;;;;;23.97;12.60;;;;;;;8.73;100.00;99965.09;5003118;28;20667;-74
2023/03/22 06:57:03;;;;;;;20.33;12.47;;;;;;;8.75;100.00;99963.09;5016056;28;20260;-74
2023/03/22 06:59:29;;;;;;;20.48;12.18;;;;;;;8.73;100.00;99967.75;5030907;28;20029;-73
2023/03/22 07:01:54;;;;;;;26.00;13.77;;;;;;;8.73;100.00;99953.63;4992810;28;20125;-74
2023/03/22 07:04:20;;;;;;;22.77;13.25;;;;;;;8.75;100.00;99967.59;5034987;28;20857;-74
2023/03/22 07:06:47;;;;;;;21.08;12.85;;;;;;;8.75;100.00;99959.59;5006537;28;20117;-74
2023/03/22 07:09:12;;;;;;;21.75;12.30;;;;;;;8.82;100.00;99956.09;5007800;28;20121;-74
2023/03/22 07:11:38;;;;;;;24.88;12.38;;;;;;;8.77;100.00;99947.78;5003039;28;20037;-73
2023/03/22 07:14:03;;;;;;;19.87;12.60;;;;;;;8.79;100.00;99942.31;5012453;28;20026;-73
2023/03/22 07:16:47;;;;;;;24.55;12.95;;;;;;;8.80;100.00;99944.81;5015961;28;20052;-73
2023/03/22 07:19:13;;;;;;;19.20;10.90;;;;;;;8.79;100.00;99929.00;5033698;28;20388;-74
2023/03/22 07:21:39;;;;;;;22.35;12.52;;;;;;;8.93;100.00;99936.28;5019140;28;20319;-73
2023/03/22 07:24:10;;;;;;;24.23;12.35;;;;;;;8.90;100.00;99933.09;5008336;28;20062;-74
2023/03/22 07:26:37;;;;;;;21.77;11.43;;;;;;;8.90;100.00;99935.78;5020012;28;20112;-72
2023/03/22 07:29:03;;;;;;;20.77;10.88;;;;;;;8.87;100.00;99924.50;5010592;28;20030;-74
2023/03/22 07:31:35;;;;;;;18.38;11.20;;;;;;;8.79;100.00;99918.34;5026292;28;20113;-72
2023/03/22 07:34:03;;;;;;;20.17;11.65;;;;;;;8.86;100.00;99916.66;5016114;28;20501;-74
2023/03/22 07:36:34;;;;;;;19.92;11.60;;;;;;;8.80;100.00;99906.69;5010721;28;20030;-73
2023/03/22 07:39:00;;;;;;;19.58;11.77;;;;;;;8.78;100.00;99912.22;5011403;28;20036;-72
2023/03/22 07:41:30;;;;;;;24.50;11.95;;;;;;;8.82;100.00;99910.00;5007613;28;20037;-73
2023/03/22 07:44:22;;;;;;;22.55;11.57;;;;;;;8.84;100.00;99911.50;5009601;28;20107;-73
2023/03/22 07:47:07;;;;;;;15.27;10.57;;;;;;;8.94;100.00;99911.28;5002166;28;20347;-74
2023/03/22 07:49:55;;;;;;;17.50;10.40;;;;;;;8.97;100.00;99899.50;4981036;28;20842;-72
2023/03/22 07:52:26;;;;;;;17.65;10.25;;;;;;;8.96;100.00;99884.50;5003643;28;20034;-72
2023/03/22 07:54:52;;;;;;;21.10;10.50;;;;;;;9.01;100.00;99883.00;5003591;28;20058;-73
2023/03/22 07:57:17;;;;;;;18.00;10.13;;;;;;;9.08;100.00;99875.97;5001542;28;20056;-74
2023/03/22 07:59:47;;;;;;;17.70;9.35;;;;;;;9.10;100.00;99862.47;5017973;28;20034;-74
2023/03/22 08:02:13;;;;;;;17.48;9.38;;;;;;;9.11;100.00;99856.16;5001994;28;20037;-74
2023/03/22 08:04:45;;;;;;;20.15;9.82;;;;;;;9.18;100.00;99843.81;4999719;28;20484;-72
2023/03/22 08:07:26;;;;;;;20.88;9.35;;;;;;;9.20;100.00;99819.63;5003357;28;20034;-74
2023/03/22 08:09:51;;;;;;;21.65;9.23;;;;;;;9.23;100.00;99821.97;5001282;28;20034;-73
2023/03/22 08:12:17;;;;;;;;;;;;;;;9.21;100.00;99808.81;5014880;28;20022;-74
2023/03/22 08:14:49;;;;;;;20.75;8.95;;;;;;;9.23;100.00;99816.66;5000366;28;19917;-72
2023/03/22 08:17:17;;;;;;;21.42;10.95;;;;;;;9.29;100.00;99815.91;4986019;28;20453;-74
2023/03/22 08:19:44;;;;;;;16.52;8.93;;;;;;;9.32;100.00;99815.59;5002131;28;20133;-73
2023/03/22 08:22:14;;;;;;;19.45;8.65;;;;;;;9.30;100.00;99813.09;4988888;28;20064;-73
2023/03/22 08:25:03;;;;;;;18.73;7.45;;;;;;;9.29;100.00;99794.63;5014787;28;20049;-74
2023/03/22 08:27:32;;;;;;;14.13;8.13;;;;;;;9.32;100.00;99778.28;5004087;28;20026;-74
2023/03/22 08:29:59;;;;;;;17.40;8.02;;;;;;;9.34;100.00;99741.66;5005787;28;20180;-74
2023/03/22 08:32:25;;;;;;;13.98;6.95;;;;;;;9.46;100.00;99742.06;5005291;28;20036;-71
2023/03/22 08:34:51;;;;;;;10.97;7.20;;;;;;;9.57;100.00;99743.44;4988327;28;20026;-73
2023/03/22 08:37:19;;;;;;;12.70;8.05;;;;;;;9.58;100.00;99726.47;4993322;28;20029;-74
2023/03/22 08:39:45;;;;;;;13.43;7.65;;;;;;;9.48;100.00;99732.03;5000236;28;20037;-74
2023/03/22 08:42:43;;;;;;;22.15;8.73;;;;;;;9.60;100.00;99733.28;4989942;28;20683;-73
2023/03/22 08:45:09;;;;;;;15.67;8.00;;;;;;;9.59;100.00;99725.44;5004936;28;20037;-74
2023/03/22 08:47:40;;;;;;;16.88;8.15;;;;;;;9.70;100.00;99723.16;5014737;28;20280;-74
2023/03/22 08:50:07;;;;;;;15.77;9.13;;;;;;;9.68;100.00;99719.84;5007984;28;20026;-74
2023/03/22 08:52:48;;;;;;;17.60;7.97;;;;;;;9.85;100.00;99725.00;5015563;28;20044;-74
2023/03/22 08:55:24;;;;;;;14.63;7.95;;;;;;;10.01;100.00;99719.50;5014997;28;20061;-73
2023/03/22 08:58:10;;;;;;;15.68;8.30;;;;;;;9.96;100.00;99673.91;5009603;28;20096;-74
2023/03/22 09:00:44;;;;;;;17.42;9.55;;;;;;;10.07;100.00;99657.44;5023801;28;20037;-72
2023/03/22 09:03:15;;;;;;;13.40;7.63;;;;;;;10.07;100.00;99629.97;4989601;28;20113;-74
2023/03/22 09:05:40;;;;;;;15.20;9.52;;;;;;;10.08;100.00;99600.41;5001390;28;20644;-73
2023/03/22 09:08:06;;;;;;;15.85;8.80;;;;;;;10.01;100.00;99601.34;5006135;28;20030;-73
2023/03/22 09:10:40;;;;;;;16.02;9.55;;;;;;;10.14;100.00;99613.00;5012498;28;20044;-74
2023/03/22 09:13:07;;;;;;;18.48;10.35;;;;;;;10.04;100.00;99607.13;5006044;28;20041;-74
2023/03/22 09:15:33;;;;;;;20.70;10.57;;;;;;;10.20;100.00;99631.94;5009769;28;20040;-74
2023/03/22 09:18:08;;;;;;;23.10;10.90;;;;;;;10.51;100.00;99618.34;5003946;28;20026;-73
2023/03/22 09:20:34;;;;;;;15.50;9.43;;;;;;;10.49;100.00;99602.56;4982664;28;20727;-74
2023/03/22 09:22:59;;;;;;;18.35;10.60;;;;;;;10.36;100.00;99573.06;4987484;28;20049;-72
2023/03/22 09:25:26;;;;;;;18.35;11.05;;;;;;;10.39;100.00;99604.69;5025271;28;20026;-73
2023/03/22 09:27:51;;;;;;;20.10;11.70;;;;;;;10.91;100.00;99651.63;5004856;28;20022;-74
2023/03/22 09:30:17;;;;;;;20.58;11.18;;;;;;;11.00;100.00;99564.16;5007827;28;20518;-74
2023/03/22 09:32:42;;;;;;;16.83;10.60;;;;;;;10.92;100.00;99542.97;5005078;28;20107;-72
2023/03/22 09:35:10;;;;;;;23.40;10.60;;;;;;;10.98;100.00;99508.31;5018560;28;20462;-74
2023/03/22 09:37:52;;;;;;;16.80;10.70;;;;;;;11.25;100.00;99515.66;5009393;28;20120;-74
2023/03/22 09:40:18;;;;;;;14.40;10.30;;;;;;;11.88;100.00;99537.75;5000384;28;20027;-74
2023/03/22 09:42:49;;;;;;;16.65;11.50;;;;;;;11.62;100.00;99380.72;5015201;28;20081;-74
2023/03/22 09:45:23;;;;;;;19.08;11.18;;;;;;;11.61;100.00;99358.53;5020861;28;20130;-74
2023/03/22 09:47:52;;;;;;;18.40;12.25;;;;;;;11.38;100.00;99387.47;5008415;28;20030;-72
2023/03/22 09:50:22;;;;;;;21.27;12.25;;;;;;;11.61;100.00;99411.16;5010666;28;20042;-74
2023/03/22 09:52:49;;;;;;;23.77;12.50;;;;;;;12.43;100.00;99478.78;5012899;28;20076;-74
2023/03/22 09:55:33;;;;;;;19.75;12.18;;;;;;;11.94;100.00;99260.66;5004489;28;20505;-74
2023/03/22 09:58:13;;;;;;;15.63;11.13;;;;;;;12.29;100.00;99285.31;5015421;28;20038;-74
2023/03/22 10:00:46;;;;;;;16.92;11.73;;;;;;;12.10;100.00;99265.56;5009325;28;20477;-74
2023/03/22 10:03:30;;;;;;;21.27;12.60;;;;;;;11.88;100.00;99256.97;5007337;28;20034;-74
2023/03/22 10:06:06;;;;;;;18.75;12.00;;;;;;;12.15;100.00;99256.91;5020714;28;20033;-73
2023/03/22 10:08:39;;;;;;;21.08;12.15;;;;;;;12.41;100.00;99261.41;5016464;28;20038;-74
2023/03/22 10:11:23;;;;;;;17.75;11.75;;;;;;;12.10;100.00;99145.19;5005180;28;20026;-74
2023/03/22 10:13:59;;;;;;;18.10;11.10;;;;;;;12.37;100.00;99206.66;5017882;28;20108;-73
2023/03/22 10:16:31;;;;;;;;;;;;;;;11.83;100.00;99126.53;5016219;28;20121;-74
2023/03/22 10:19:05;;;;;;;17.02;9.77;;;;;;;12.17;100.00;99198.66;5019212;28;19966;-74
2023/03/22 10:21:32;;;;;;;14.98;10.45;;;;;;;12.05;100.00;99139.66;5012084;28;20037;-74
2023/03/22 10:24:01;;;;;;;20.98;11.70;;;;;;;12.43;100.00;99185.22;5019748;28;20025;-73
2023/03/22 10:26:31;;;;;;;19.60;11.05;;;;;;;12.49;100.00;99111.25;5021344;28;20095;-73
2023/03/22 10:29:04;;;;;;;16.70;10.00;;;;;;;12.38;100.00;99088.66;5010096;28;20812;-75
2023/03/22 10:31:32;;;;;;;16.13;9.90;;;;;;;12.39;100.00;99076.94;5025219;28;20080;-73
2023/03/22 10:34:05;;;;;;;19.67;10.18;;;;;;;12.88;100.00;99120.91;5034920;28;20026;-73
2023/03/22 10:36:34;;;;;;;14.73;9.43;;;;;;;12.94;100.00;99003.22;5003263;28;20037;-76
2023/03/22 10:39:08;;;;;;;18.35;9.10;;;;;;;12.74;100.00;98894.44;5017564;28;20486;-73
2023/03/22 10:41:35;;;;;;;22.75;9.05;;;;;;;12.68;100.00;98881.91;5014107;28;20438;-73
2023/03/22 10:44:02;;;;;;;;;;;;;;;12.71;100.00;98896.72;5033597;28;20675;-76
2023/03/22 10:46:34;;;;;;;15.05;7.90;;;;;;;12.52;100.00;98811.03;5025383;28;20022;-75
2023/03/22 10:49:02;;;;;;;15.73;7.05;;;;;;;12.62;100.00;98829.28;5004559;28;20146;-74
2023/03/22 10:51:47;;;;;;;11.40;7.15;;;;;;;12.52;100.00;98717.34;5017122;28;20130;-73
2023/03/22 10:54:15;;;;;;;17.60;6.95;;;;;;;12.51;100.00;98741.69;5013339;28;20034;-74
2023/03/22 10:56:41;;;;;;;18.55;6.90;;;;;;;12.41;100.00;98724.28;5016951;28;20060;-74
2023/03/22 10:59:07;;;;;;;15.93;6.60;;;;;;;12.25;100.00;98692.78;5016314;28;20487;-73
2023/03/22 11:01:40;;;;;;;15.93;6.28;;;;;;;12.31;100.00;98717.81;5018916;28;20036;-72
2023/03/22 11:04:09;;;;;;;12.55;6.75;;;;;;;12.30;100.00;98718.88;5008856;28;20037;-78
2023/03/22 11:06:39;;;;;;;12.23;6.00;;;;;;;12.16;100.00;98713.66;5019063;28;20056;-73
2023/03/22 11:09:31;;;;;;;15.27;7.20;;;;;;;12.12;100.00;98731.16;5024242;28;20547;-74
2023/03/22 11:11:59;;;;;;;14.55;6.78;;;;;;;12.11;100.00;98772.34;5012618;28;20531;-72
2023/03/22 11:14:32;;;;;;;12.73;6.53;;;;;;;12.20;100.00;98756.84;5034679;28;20024;-73
2023/03/22 11:17:08;;;;;;;12.82;6.80;;;;;;;12.39;100.00;98765.69;5016329;28;20175;-74
2023/03/22 11:19:37;;;;;;;19.77;6.63;;;;;;;12.49;100.00;98725.84;5026869;28;20034;-74
2023/03/22 11:22:22;;;;;;;12.50;6.53;;;;;;;12.89;100.00;98725.31;5016560;28;20438;-73
2023/03/22 11:24:49;;;;;;;13.07;6.43;;;;;;;12.51;100.00;98563.16;5014333;28;20037;-75
2023/03/22 11:27:23;;;;;;;15.27;6.47;;;;;;;12.64;100.00;98629.91;5019494;28;20034;-73
2023/03/22 11:29:51;;;;;;;15.40;5.85;;;;;;;12.71;100.00;98655.75;5016560;28;20450;-75
2023/03/22 11:32:28;;;;;;;11.52;6.38;;;;;;;12.92;100.00;98660.59;5017573;28;20032;-77
2023/03/22 11:35:19;;;;;;;8.93;5.30;;;;;;;12.73;100.00;98535.84;5016135;28;20033;-74
2023/03/22 11:37:47;;;;;;;14.90;6.10;;;;;;;12.70;100.00;98518.41;5013845;28;20043;-76